Station: Darwin Airport

  Atmospheric Gas Attenuation - ITU Rec 676-11   --------------- db/100km ---------------
Date Time Temp RH % AH g/m3 Dew Point Wind Direction Speed kph Gust kph Barometer mB Rainfall Since 9am 24GHz 47GHz 76GHz 122GHz 134GHz 241GHz
11 22:10 28.6 84 23.61 25.6 11 13 1010.7 0 50.3 47.1 95.4 252.6 285.3 991.6
11 22:00 28.7 83 23.46 25.6 11 13 1010.6 0 50.0 46.7 94.5 250.3 282.5 981.7
11 21:50 28.7 84 23.74 25.7 9 11 1010.6 0 50.6 47.3 95.9 254.0 287.0 997.5
11 21:40 28.6 84 23.61 25.6 11 13 1010.4 0 50.3 47.0 95.4 252.6 285.2 991.4
11 21:30 28.5 84 23.48 25.5 13 13 1010.2 0 50.1 46.8 94.8 251.1 283.5 985.2
11 21:20 28.3 84 23.22 25.3 9 11 1010.1 0 49.6 46.4 93.8 248.3 280.0 973.1
11 21:10 28.3 82 22.67 25 9 11 1010.1 0 48.4 45.3 91.0 241.1 271.1 942.2
11 21:00 28.3 81 22.4 24.7 7 9 1010 0 47.8 44.8 89.7 237.5 266.8 927.1
11 20:50 28.3 79 21.84 24.3 7 7 1009.8 0 46.6 43.7 87.0 230.3 257.8 896.1
11 20:40 28.3 76 21.01 23.8 9 11 1009.7 0 44.9 42.1 83.0 219.7 244.9 851.1
11 20:30 28.3 75 20.74 23.5 9 11 1009.6 0 44.3 41.6 81.7 216.3 240.7 836.6
11 20:20 28.4 74 20.57 23.3 7 9 1009.7 0 43.9 41.2 80.8 213.9 237.8 826.5
11 20:10 28.4 71 19.74 22.8 9 9 1009.6 0 42.2 39.7 76.9 203.7 225.2 782.8
11 20:00 28.5 71 19.85 22.8 4 6 1009.6 0 42.4 39.8 77.4 204.7 226.6 787.5
11 19:50 28.7 70 19.78 22.7 2 4 1009.4 0 42.2 39.6 76.8 203.3 224.9 781.7
11 19:40 28.7 67 18.93 22 7 7 1009.2 0 40.5 38.0 73.0 193.1 212.3 738.0
11 19:30 28.6 66 18.55 21.8 6 7 1009.2 0 39.7 37.4 71.4 188.8 207.1 719.8
11 19:20 28.6 70 19.67 22.7 4 4 1009 0 42.0 39.4 76.4 202.2 223.5 776.8
11 19:10 28.7 70 19.78 22.7 4 6 1008.9 0 42.2 39.6 76.8 203.2 224.8 781.5
11 19:00 29 67 19.25 22.4 4 6 1008.8 0 41.1 38.4 74.1 196.1 216.1 751.2
11 18:50 28.9 71 20.29 23.2 9 11 1008.7 0 43.3 40.4 78.9 208.9 231.8 805.8
11 18:40 29.3 72 21.02 23.8 11 11 1008.6 0 44.8 41.5 81.9 216.8 241.6 839.8
11 18:30 29.4 73 21.43 24.2 11 13 1008.5 0 45.6 42.3 83.7 221.6 247.5 860.4
11 18:20 29.3 72 21.02 23.8 11 15 1008.3 0 44.8 41.5 81.8 216.7 241.5 839.6
11 18:10 29.4 72 21.14 23.8 17 19 1008.3 0 45.0 41.7 82.3 217.9 243.0 844.9
11 18:00 30.5 69 21.5 24.3 19 22 1008.2 0 45.7 41.8 82.8 219.2 244.9 851.5
11 17:50 30.8 68 21.53 24.4 15 19 1008.1 0 45.7 41.7 82.6 218.7 244.4 849.7
11 17:40 31.2 68 22 24.7 19 22 1008.2 0 46.6 42.4 84.3 223.3 250.2 869.9
11 17:30 31.4 69 22.57 25.2 17 20 1008 0 47.8 43.4 86.7 229.8 258.1 897.6
11 17:20 31.2 71 22.97 25.3 15 19 1007.9 0 48.7 44.2 88.9 235.4 265.0 921.3
11 17:10 31.4 71 23.22 25.5 17 19 1007.9 0 49.2 44.6 89.8 237.9 268.1 932.4
11 17:00 31.6 70 23.14 25.6 19 22 1007.8 0 49.0 44.3 89.2 236.3 266.2 925.5
11 16:50 31.4 69 22.57 25.2 20 24 1007.8 0 47.8 43.4 86.7 229.7 258.1 897.5
11 16:40 31.6 66 21.82 24.6 24 26 1007.9 0 46.2 41.9 83.0 219.9 246.1 855.8
11 16:30 31.8 68 22.72 25.3 19 24 1007.9 0 48.1 43.4 87.0 230.4 259.0 900.8
11 16:20 31.8 69 23.05 25.5 24 28 1007.9 0 48.8 44.1 88.5 234.5 264.1 918.3
11 16:10 32.1 65 22.07 24.7 19 24 1007.8 0 46.7 42.1 83.6 221.5 248.2 863.1
11 16:00 31.4 66 21.59 24.3 22 24 1007.7 0 45.7 41.5 82.2 217.6 243.3 845.9
11 15:50 31.6 67 22.15 24.9 22 22 1007.6 0 46.9 42.5 84.5 223.9 251.0 872.8
11 15:40 32.4 67 23.11 25.5 19 22 1007.6 0 48.8 43.8 88.1 233.4 262.8 914.1
11 15:30 32.4 68 23.46 25.8 22 26 1007.6 0 49.5 44.5 89.7 237.7 268.2 932.7
11 15:20 32 67 22.63 25.2 20 26 1007.5 0 47.9 43.1 86.3 228.6 256.9 893.4
11 15:10 32.3 65 22.3 24.9 19 24 1007.6 0 47.1 42.4 84.4 223.7 250.9 872.7
11 15:00 32.5 61 21.15 24.1 19 22 1007.7 0 44.7 40.2 79.0 209.3 233.3 811.4
11 14:50 32.2 66 22.53 25.1 15 19 1007.8 0 47.6 42.9 85.6 226.8 254.8 886.0
11 14:40 32.4 64 22.08 24.9 20 20 1007.9 0 46.7 41.9 83.3 220.7 247.3 860.3
11 14:30 32.7 64 22.43 25.2 20 24 1008 0 47.3 42.4 84.6 224.2 251.6 875.1
11 14:20 32.7 64 22.43 25.1 17 19 1008.2 0 47.3 42.4 84.6 224.2 251.6 875.2
11 14:10 32.7 63 22.08 24.8 15 19 1008.4 0 46.6 41.8 83.0 220.0 246.4 857.2
11 14:00 32.7 64 22.43 25.1 17 19 1008.5 0 47.3 42.5 84.7 224.2 251.7 875.4
11 13:50 32.7 59 20.68 23.8 15 17 1008.7 0 43.7 39.3 76.8 203.3 226.0 786.2
11 13:40 32.5 65 22.54 25.2 13 13 1008.9 0 47.6 42.8 85.4 226.2 254.1 883.6
11 13:30 32.6 60 20.92 23.9 13 15 1009.1 0 44.2 39.8 78.0 206.5 229.9 799.5
11 13:20 32.5 62 21.5 24.5 13 15 1009.2 0 45.4 40.9 80.7 213.7 238.6 830.0
11 13:10 32.7 63 22.08 24.9 15 19 1009.3 0 46.6 41.8 83.1 220.1 246.6 857.7
11 13:00 31.8 64 21.38 24.2 15 19 1009.5 0 45.2 41.0 80.9 214.2 239.1 831.6
11 12:50 31.9 64 21.5 24.3 11 13 1009.6 0 45.5 41.2 81.3 215.4 240.6 836.8
11 12:40 32.4 62 21.39 24.4 11 13 1009.9 0 45.2 40.8 80.3 212.7 237.5 825.9
11 12:30 32.3 65 22.3 25.1 13 15 1010 0 47.1 42.5 84.6 224.1 251.3 874.0
11 12:20 32.3 62 21.27 24.2 13 15 1010.2 0 45.0 40.6 79.9 211.6 236.1 821.0
11 12:10 32.4 68 23.46 25.7 11 13 1010.4 0 49.5 44.6 89.9 238.2 268.7 934.4
11 12:00 31.9 65 21.83 24.6 7 11 1010.5 0 46.2 41.8 82.9 219.6 245.7 854.4
11 11:50 31.8 69 23.05 25.5 9 15 1010.8 0 48.7 44.2 88.7 235.0 264.6 920.1
11 11:40 31.1 68 21.88 24.5 13 15 1010.9 0 46.4 42.4 84.0 222.6 249.1 866.3
11 11:30 31 71 22.73 25.3 7 9 1011 0 48.2 44.0 88.2 233.5 262.5 912.7
11 11:20 31.2 71 22.97 25.4 9 11 1011.1 0 48.6 44.4 89.1 235.9 265.5 923.3
11 11:10 31.9 66 22.17 24.8 7 9 1011.2 0 46.9 42.5 84.5 223.8 250.9 872.5
11 11:00 32 65 21.95 24.6 7 9 1011.3 0 46.4 42.0 83.4 220.9 247.3 860.0
11 10:50 31.7 63 20.94 24 0 0 1011.3 0 44.3 40.3 79.1 209.5 233.2 811.1
11 10:40 31.3 65 21.14 24.1 6 7 1011.4 0 44.8 40.9 80.5 213.0 237.5 825.8
11 10:30 30.7 68 21.42 24.3 2 4 1011.4 0 45.4 41.7 82.4 218.1 243.6 846.9
11 10:20 30.4 68 21.08 23.9 6 7 1011.5 0 44.8 41.2 81.1 214.8 239.4 832.5
11 10:10 30.4 71 22.01 24.7 6 6 1011.4 0 46.7 43.0 85.5 226.3 253.5 881.5
11 10:00 29.8 81 24.3 26.2 4 6 1011.4 0 51.6 47.8 97.3 257.8 292.0 1015.0
11 09:50 29.6 80 23.74 25.9 11 13 1011.4 0 50.5 46.8 94.8 251.1 283.7 986.1
11 09:40 29.4 81 23.78 25.9 7 9 1011.3 0 50.6 47.0 95.2 252.3 285.1 990.9
11 09:30 29.5 83 24.5 26.3 7 9 1011.3 0 52.1 48.4 98.7 261.5 296.5 1030.4
11 09:20 29.4 81 23.78 25.9 7 9 1011.2 0 50.6 47.0 95.2 252.3 285.1 990.9
11 09:10 29.3 83 24.24 26.2 6 7 1011.1 0 51.6 47.9 97.7 258.7 292.9 1018.2
11 09:00 29 83 23.84 25.9 4 4 1011.1 0 50.8 47.3 96.0 254.4 287.6 999.5
11 08:50 29.1 82 23.68 25.7 0 0 1011 0.2 50.4 46.9 95.1 251.9 284.6 989.1
11 08:40 29.2 81 23.52 25.7 0 0 1010.9 0.2 50.1 46.5 94.2 249.4 281.6 978.7
11 08:30 29.4 82 24.07 26 0 0 1010.9 0.2 51.2 47.5 96.7 256.1 289.7 1007.1
11 08:20 29 85 24.42 26.2 0 0 1010.8 0.2 52.0 48.5 99.0 262.1 297.1 1032.4
11 08:10 28.1 90 24.61 26.4 0 0 1010.7 0.2 52.5 49.4 101.1 267.9 303.9 1056.0
11 08:00 27.5 95 25.14 26.7 0 0 1010.6 0.2 53.7 50.9 104.7 277.5 315.4 1096.0
11 07:50 27 96 24.71 26.3 0 2 1010.6 0.2 52.9 50.3 103.2 273.3 310.2 1077.7
11 07:40 26.6 98 24.67 26.2 4 6 1010.5 0.2 52.9 50.4 103.5 274.2 311.2 1081.1
11 07:30 26 98 23.86 25.6 4 4 1010.4 0.2 51.2 49.1 100.1 265.0 299.8 1041.5
11 07:20 25.7 98 23.46 25.3 6 6 1010.3 0.2 50.4 48.4 98.4 260.5 294.2 1022.0
11 07:10 25.2 96 22.35 24.6 6 6 1010.2 0.2 48.1 46.4 93.3 247.0 277.4 963.7
11 07:00 24.8 98 22.31 24.4 0 0 1010.1 0.2 48.1 46.6 93.6 247.7 278.3 966.5
11 06:50 24.7 98 22.18 24.3 0 0 1010.1 0.2 47.8 46.4 93.0 246.3 276.5 960.3
11 06:40 24.8 98 22.31 24.4 0 0 1010 0.2 48.1 46.6 93.6 247.7 278.2 966.5
11 06:30 24.7 98 22.18 24.3 0 0 1009.9 0.2 47.8 46.3 93.0 246.3 276.4 960.1
11 06:20 24.8 98 22.31 24.4 0 0 1009.9 0.2 48.1 46.6 93.6 247.7 278.2 966.4
11 06:10 24.8 98 22.31 24.4 0 0 1009.8 0.2 48.1 46.5 93.5 247.7 278.2 966.3
11 06:00 25.1 96 22.22 24.5 0 0 1009.7 0.2 47.8 46.2 92.7 245.4 275.6 957.2
11 05:50 25.1 96 22.22 24.5 0 0 1009.7 0.2 47.8 46.2 92.7 245.4 275.6 957.2
11 05:40 25.2 98 22.81 24.8 0 0 1009.7 0.2 49.1 47.3 95.6 253.2 285.1 990.2

Last Refresh: 11-Apr-2021 22:20:27

Bureau of Meteorology